createdAt,value
2022-08-19T00:00:34.491Z,22.27
2022-08-19T00:03:04.758Z,22.33
2022-08-19T00:05:35.083Z,21.48
2022-08-19T00:08:05.437Z,26.17
2022-08-19T00:10:38.079Z,22.40
2022-08-19T00:13:08.361Z,24.20
2022-08-19T00:15:38.772Z,23.30
2022-08-19T00:18:09.085Z,22.48
2022-08-19T00:20:41.343Z,21.42
2022-08-19T00:23:11.591Z,21.85
2022-08-19T00:25:45.048Z,20.70
2022-08-19T00:28:19.099Z,21.13
2022-08-19T00:30:49.328Z,23.83
2022-08-19T00:33:19.302Z,21.15
2022-08-19T00:35:55.979Z,20.70
2022-08-19T00:38:35.003Z,22.38
2022-08-19T00:41:11.074Z,24.13
2022-08-19T00:43:42.298Z,18.48
2022-08-19T00:46:12.637Z,20.85
2022-08-19T00:48:42.840Z,21.08
2022-08-19T00:51:13.143Z,17.90
2022-08-19T00:53:44.545Z,17.80
2022-08-19T00:56:18.176Z,21.23
2022-08-19T00:58:48.435Z,20.95
2022-08-19T01:01:18.883Z,18.02
2022-08-19T01:03:57.127Z,21.40
2022-08-19T01:06:28.913Z,20.10
2022-08-19T01:08:59.342Z,17.90
2022-08-19T01:11:32.850Z,18.73
2022-08-19T01:14:03.321Z,18.83
2022-08-19T01:16:35.621Z,19.98
2022-08-19T01:19:06.202Z,20.35
2022-08-19T01:21:41.624Z,19.40
2022-08-19T01:24:14.605Z,19.75
2022-08-19T01:26:47.037Z,19.50
2022-08-19T01:29:17.740Z,20.73
2022-08-19T01:31:48.248Z,21.33
2022-08-19T01:34:18.496Z,19.88
2022-08-19T01:36:50.933Z,21.35
2022-08-19T01:39:27.601Z,21.40
2022-08-19T01:41:57.910Z,21.08
2022-08-19T01:44:27.893Z,22.58
2022-08-19T01:46:58.184Z,20.27
2022-08-19T01:49:29.166Z,23.00
2022-08-19T01:51:59.600Z,18.88
2022-08-19T01:54:32.296Z,20.75
2022-08-19T01:57:05.633Z,22.75
2022-08-19T01:59:37.498Z,19.52
2022-08-19T02:02:08.552Z,19.35
2022-08-19T02:04:38.653Z,20.50
2022-08-19T02:07:09.391Z,22.20
2022-08-19T02:09:42.137Z,19.70
2022-08-19T02:12:12.535Z,20.20
2022-08-19T02:14:42.601Z,19.30
2022-08-19T02:17:12.741Z,18.80
2022-08-19T02:19:43.199Z,19.55
2022-08-19T02:22:13.274Z,19.92
2022-08-19T02:24:46.264Z,22.13
2022-08-19T02:27:16.608Z,21.20
2022-08-19T02:29:55.357Z,21.23
2022-08-19T02:32:25.431Z,21.58
2022-08-19T02:34:55.808Z,20.30
2022-08-19T02:37:38.616Z,17.67
2022-08-19T02:40:12.867Z,17.13
2022-08-19T02:42:44.488Z,18.25
2022-08-19T02:45:15.048Z,20.85
2022-08-19T02:47:45.329Z,20.85
2022-08-19T02:50:16.338Z,19.77
2022-08-19T02:52:46.448Z,19.60
2022-08-19T02:55:19.778Z,24.98
2022-08-19T02:57:50.004Z,28.15
2022-08-19T03:00:20.752Z,29.20
2022-08-19T03:02:51.070Z,29.25
2022-08-19T03:05:47.868Z,25.35
2022-08-19T03:08:13.348Z,23.40
2022-08-19T03:10:52.838Z,25.38
2022-08-19T03:13:22.921Z,21.67
2022-08-19T03:15:52.989Z,43.30
2022-08-19T03:18:23.485Z,35.83
2022-08-19T03:20:56.978Z,22.05
2022-08-19T03:23:27.646Z,24.00
2022-08-19T03:26:15.725Z,24.20
2022-08-19T03:28:57.855Z,22.88
2022-08-19T03:31:43.664Z,21.20
2022-08-19T03:34:27.185Z,25.35
2022-08-19T03:36:58.580Z,23.60
2022-08-19T03:39:29.624Z,25.95
2022-08-19T03:42:32.183Z,25.73
2022-08-19T03:44:53.778Z,24.48
2022-08-19T03:47:24.137Z,21.65
2022-08-19T03:49:54.353Z,22.58
2022-08-19T03:52:24.596Z,23.25
2022-08-19T03:54:54.781Z,25.30
2022-08-19T03:57:32.268Z,22.60
2022-08-19T04:00:12.698Z,23.27
2022-08-19T04:02:58.034Z,23.00
2022-08-19T04:05:31.233Z,24.02
2022-08-19T04:08:01.655Z,23.52
2022-08-19T04:10:32.382Z,23.08
2022-08-19T04:13:05.177Z,24.45
2022-08-19T04:15:40.481Z,29.30
2022-08-19T04:18:10.613Z,26.50
2022-08-19T04:20:46.160Z,25.77
2022-08-19T04:23:16.483Z,24.17
2022-08-19T04:25:48.064Z,24.65
2022-08-19T04:28:20.726Z,22.63
2022-08-19T04:30:54.042Z,22.27
2022-08-19T04:33:28.496Z,22.52
2022-08-19T04:35:59.195Z,24.08
2022-08-19T04:38:29.119Z,23.55
2022-08-19T04:41:11.546Z,25.88
2022-08-19T04:43:46.066Z,20.65
2022-08-19T04:46:39.069Z,23.67
2022-08-19T04:49:13.237Z,25.30
2022-08-19T04:51:48.053Z,22.48
2022-08-19T04:54:38.021Z,25.90
2022-08-19T04:57:11.411Z,25.38
2022-08-19T04:59:44.423Z,24.70
2022-08-19T05:02:14.760Z,24.80
2022-08-19T05:04:45.037Z,24.83
2022-08-19T05:07:15.352Z,25.27
2022-08-19T05:09:57.969Z,28.40
2022-08-19T05:12:29.851Z,25.42
2022-08-19T05:15:03.649Z,30.73
2022-08-19T05:17:38.280Z,23.35
2022-08-19T05:20:23.657Z,24.35
2022-08-19T05:22:54.248Z,23.10
2022-08-19T05:25:26.812Z,24.60
2022-08-19T05:27:57.934Z,21.50
2022-08-19T05:30:46.741Z,25.55
2022-08-19T05:33:18.968Z,20.27
2022-08-19T05:35:50.322Z,24.15
2022-08-19T05:38:20.885Z,23.75
2022-08-19T05:40:51.181Z,24.38
2022-08-19T05:43:21.292Z,24.08
2022-08-19T05:45:54.449Z,30.40
2022-08-19T05:48:24.485Z,28.40
2022-08-19T05:50:54.862Z,24.45
2022-08-19T05:53:25.150Z,27.13
2022-08-19T05:55:55.427Z,27.35
2022-08-19T05:58:28.117Z,26.98
2022-08-19T06:01:05.307Z,25.77
2022-08-19T06:03:38.376Z,22.08
2022-08-19T06:06:08.910Z,22.00
2022-08-19T06:08:39.497Z,22.40
2022-08-19T06:11:20.823Z,22.02
2022-08-19T06:14:00.312Z,20.60
2022-08-19T06:16:36.071Z,21.38
2022-08-19T06:19:08.510Z,23.08
2022-08-19T06:21:41.105Z,21.70
2022-08-19T06:24:13.577Z,19.30
2022-08-19T06:29:37.556Z,20.20
2022-08-19T06:32:10.397Z,18.27
2022-08-19T06:34:42.065Z,18.70
2022-08-19T06:37:12.550Z,18.58
2022-08-19T06:39:46.356Z,19.80
2022-08-19T06:44:53.602Z,19.92
2022-08-19T06:47:28.728Z,19.63
2022-08-19T06:50:03.746Z,19.77
2022-08-19T06:52:36.504Z,18.55
2022-08-19T06:55:07.741Z,19.35
2022-08-19T06:57:38.605Z,17.02
2022-08-19T07:00:13.047Z,21.75
2022-08-19T07:02:50.675Z,17.90
2022-08-19T07:08:04.563Z,21.48
2022-08-19T07:10:36.118Z,22.20
2022-08-19T07:13:06.913Z,19.90
2022-08-19T07:15:37.745Z,19.30
2022-08-19T07:18:12.690Z,17.40
2022-08-19T07:20:43.997Z,16.98
2022-08-19T07:23:16.218Z,14.13
2022-08-19T07:25:53.042Z,17.27
2022-08-19T07:28:24.905Z,20.85
2022-08-19T07:30:55.751Z,16.55
2022-08-19T07:33:28.280Z,19.85
2022-08-19T07:35:59.550Z,18.95
2022-08-19T07:38:29.869Z,20.65
2022-08-19T07:40:59.846Z,16.33
2022-08-19T07:43:34.997Z,19.08
2022-08-19T07:46:05.598Z,16.90
2022-08-19T07:48:38.441Z,14.73
2022-08-19T07:51:11.258Z,14.87
2022-08-19T07:53:45.803Z,15.88
2022-08-19T07:56:17.026Z,13.85
2022-08-19T07:58:48.758Z,13.38
2022-08-19T08:01:22.451Z,14.23
2022-08-19T08:06:50.937Z,14.32
2022-08-19T08:09:24.406Z,16.27
2022-08-19T08:12:01.906Z,17.77
2022-08-19T08:14:37.570Z,18.48
2022-08-19T08:17:15.032Z,20.15
2022-08-19T08:20:03.894Z,18.85
2022-08-19T08:22:46.405Z,18.35
2022-08-19T08:25:20.661Z,17.20
2022-08-19T08:27:53.723Z,20.05
2022-08-19T08:30:31.308Z,18.98
2022-08-19T08:33:03.335Z,20.98
2022-08-19T08:35:35.924Z,17.58
2022-08-19T08:38:07.375Z,22.52
2022-08-19T08:40:46.036Z,21.65
2022-08-19T08:43:26.641Z,21.25
2022-08-19T08:46:06.574Z,23.52
2022-08-19T08:48:48.441Z,20.27
2022-08-19T08:51:37.262Z,20.10
2022-08-19T08:54:10.415Z,19.88
2022-08-19T08:56:42.288Z,19.13
2022-08-19T08:59:18.402Z,18.67
2022-08-19T09:01:49.358Z,24.00
2022-08-19T09:04:19.972Z,20.20
2022-08-19T09:07:18.422Z,19.85
2022-08-19T09:10:05.124Z,18.27
2022-08-19T09:12:49.100Z,26.15
2022-08-19T09:15:19.905Z,16.55
2022-08-19T09:18:04.329Z,21.00
2022-08-19T09:20:37.620Z,20.02
2022-08-19T09:23:15.461Z,21.10
2022-08-19T09:25:45.885Z,19.80
2022-08-19T09:28:21.959Z,20.90
2022-08-19T09:30:53.224Z,18.58
2022-08-19T09:33:23.584Z,19.10
2022-08-19T09:35:54.028Z,22.88
2022-08-19T09:38:26.806Z,19.83
2022-08-19T09:40:56.749Z,22.92
2022-08-19T09:43:33.688Z,24.23
2022-08-19T09:46:18.073Z,21.85
2022-08-19T09:48:49.451Z,22.70
2022-08-19T09:51:22.253Z,26.50
2022-08-19T09:58:57.855Z,24.38
2022-08-19T10:01:30.159Z,25.15
2022-08-19T10:04:05.337Z,31.98
2022-08-19T10:06:46.696Z,25.85
2022-08-19T10:09:33.710Z,27.13
2022-08-19T10:12:06.077Z,27.98
2022-08-19T10:14:36.741Z,26.00
2022-08-19T10:17:17.686Z,37.08
2022-08-19T10:19:55.766Z,27.60
2022-08-19T10:22:27.693Z,24.38
2022-08-19T10:25:00.271Z,29.35
2022-08-19T10:27:32.181Z,25.50
2022-08-19T10:30:02.514Z,26.05
2022-08-19T10:32:34.033Z,24.73
2022-08-19T10:35:06.877Z,23.75
2022-08-19T10:37:37.920Z,24.17
2022-08-19T10:43:09.484Z,20.95
2022-08-19T10:45:52.584Z,21.40
2022-08-19T10:48:22.841Z,31.17
2022-08-19T10:51:05.400Z,20.30
2022-08-19T10:53:35.693Z,22.90
2022-08-19T10:56:21.488Z,27.88
2022-08-19T10:58:51.797Z,21.70
2022-08-19T11:01:22.157Z,19.52
2022-08-19T11:03:52.146Z,25.08
2022-08-19T11:06:26.013Z,23.25
2022-08-19T11:08:56.444Z,21.85
2022-08-19T11:11:29.704Z,23.58
2022-08-19T11:13:59.990Z,22.52
2022-08-19T11:16:32.306Z,22.77
2022-08-19T11:19:03.733Z,27.63
2022-08-19T11:21:35.795Z,24.13
2022-08-19T11:24:09.277Z,22.05
2022-08-19T11:26:43.285Z,22.33
2022-08-19T11:29:15.474Z,25.60
2022-08-19T11:31:48.946Z,21.77
2022-08-19T11:34:21.605Z,22.55
2022-08-19T11:36:52.884Z,21.73
2022-08-19T11:39:24.615Z,22.67
2022-08-19T11:41:57.314Z,22.05
2022-08-19T11:44:27.694Z,23.08
2022-08-19T11:46:57.916Z,22.88
2022-08-19T11:49:39.580Z,18.10
2022-08-19T11:52:10.121Z,21.23
2022-08-19T11:54:40.308Z,17.52
2022-08-19T11:57:13.229Z,19.58
2022-08-19T11:59:43.641Z,21.92
2022-08-19T12:02:15.022Z,18.95
2022-08-19T12:04:45.269Z,20.50
2022-08-19T12:07:15.655Z,22.80
2022-08-19T12:09:46.069Z,27.30
2022-08-19T12:12:22.123Z,18.38
2022-08-19T12:14:57.492Z,21.45
2022-08-19T12:17:28.086Z,22.05
2022-08-19T12:19:58.555Z,20.15
2022-08-19T12:22:29.147Z,22.23
2022-08-19T12:24:59.363Z,21.70
2022-08-19T12:27:40.108Z,20.88
2022-08-19T12:30:16.390Z,20.75
2022-08-19T12:32:46.640Z,19.23
2022-08-19T12:35:16.602Z,20.02
2022-08-19T12:37:53.290Z,18.85
2022-08-19T12:40:27.539Z,21.70
2022-08-19T12:43:00.215Z,19.08
2022-08-19T12:45:30.566Z,20.27
2022-08-19T12:48:00.620Z,18.95
2022-08-19T12:50:33.713Z,23.27
2022-08-19T12:53:03.725Z,23.20
2022-08-19T12:55:33.993Z,23.27
2022-08-19T12:58:06.597Z,24.02
2022-08-19T13:00:36.618Z,25.10
2022-08-19T13:03:06.927Z,27.23
2022-08-19T13:05:37.848Z,21.67
2022-08-19T13:08:07.826Z,23.05
2022-08-19T13:10:39.495Z,22.15
2022-08-19T13:13:13.290Z,23.17
2022-08-19T13:18:17.053Z,24.60
2022-08-19T13:20:52.648Z,28.88
2022-08-19T13:23:23.245Z,27.73
2022-08-19T13:26:00.972Z,26.65
2022-08-19T13:28:53.698Z,25.48
2022-08-19T13:31:38.609Z,25.70
2022-08-19T13:34:09.485Z,24.30
2022-08-19T13:36:40.525Z,21.45
2022-08-19T13:39:11.916Z,22.75
2022-08-19T13:41:49.621Z,25.05
2022-08-19T13:44:22.706Z,22.45
2022-08-19T13:46:54.532Z,24.10
2022-08-19T13:49:24.826Z,19.48
2022-08-19T13:51:55.043Z,20.83
2022-08-19T13:54:25.041Z,21.48
2022-08-19T13:56:55.280Z,22.05
2022-08-19T13:59:27.891Z,18.30
2022-08-19T14:02:01.978Z,17.38
2022-08-19T14:04:32.622Z,15.27
2022-08-19T14:07:02.876Z,15.32
2022-08-19T14:09:33.099Z,11.88
2022-08-19T14:12:03.307Z,10.32
2022-08-19T14:14:35.799Z,9.45
2022-08-19T14:17:05.798Z,9.15
2022-08-19T14:19:36.039Z,10.00
2022-08-19T14:22:11.110Z,9.90
2022-08-19T14:24:47.898Z,12.63
2022-08-19T14:27:18.953Z,13.43
2022-08-19T14:29:51.849Z,15.13
2022-08-19T14:32:22.661Z,13.25
2022-08-19T14:34:52.580Z,15.50
2022-08-19T14:37:23.057Z,14.05
2022-08-19T14:39:55.002Z,16.52
2022-08-19T14:42:25.266Z,16.90
2022-08-19T14:45:01.543Z,13.52
2022-08-19T14:47:31.594Z,14.75
2022-08-19T14:50:04.960Z,16.98
2022-08-19T14:52:35.480Z,18.48
2022-08-19T14:55:07.408Z,14.75
2022-08-19T14:57:37.942Z,16.05
2022-08-19T15:00:12.942Z,16.38
2022-08-19T15:02:45.092Z,15.48
2022-08-19T15:05:16.278Z,15.27
2022-08-19T15:07:46.525Z,15.73
2022-08-19T15:10:18.597Z,17.25
2022-08-19T15:12:51.733Z,17.98
2022-08-19T15:15:24.944Z,18.05
2022-08-19T15:17:55.276Z,16.67
2022-08-19T15:20:25.676Z,17.77
2022-08-19T15:22:55.889Z,16.30
2022-08-19T15:25:26.173Z,19.90
2022-08-19T15:27:56.512Z,18.02
2022-08-19T15:30:31.338Z,15.93
2022-08-19T15:33:02.081Z,17.27
2022-08-19T15:35:32.299Z,16.95
2022-08-19T15:38:02.629Z,17.10
2022-08-19T15:40:32.807Z,19.48
2022-08-19T15:43:03.415Z,18.20
2022-08-19T15:45:36.330Z,19.00
2022-08-19T15:48:07.813Z,19.37
2022-08-19T15:50:38.780Z,20.60
2022-08-19T15:53:10.409Z,18.98
2022-08-19T15:55:45.486Z,18.85
2022-08-19T15:58:29.975Z,17.85
2022-08-19T16:01:17.831Z,18.02
2022-08-19T16:04:03.561Z,16.38
2022-08-19T16:06:34.300Z,17.88
2022-08-19T16:09:06.669Z,15.82
2022-08-19T16:11:39.628Z,17.85
2022-08-19T16:14:10.219Z,17.20
2022-08-19T16:16:44.561Z,15.65
2022-08-19T16:19:15.772Z,16.38
2022-08-19T16:21:46.561Z,15.98
2022-08-19T16:24:17.507Z,18.25
2022-08-19T16:26:48.413Z,17.52
2022-08-19T16:29:34.775Z,17.10
2022-08-19T16:32:14.077Z,15.75
2022-08-19T16:34:44.873Z,18.83
2022-08-19T16:37:15.141Z,19.33
2022-08-19T16:39:45.186Z,19.98
2022-08-19T16:42:15.865Z,20.42
2022-08-19T16:44:48.460Z,16.38
2022-08-19T16:47:21.036Z,19.10
2022-08-19T16:49:53.210Z,16.95
2022-08-19T16:52:26.303Z,14.48
2022-08-19T16:54:56.805Z,14.90
2022-08-19T16:57:26.769Z,17.92
2022-08-19T16:59:56.970Z,13.88
2022-08-19T17:02:30.513Z,14.68
2022-08-19T17:05:01.347Z,13.98
2022-08-19T17:07:33.665Z,13.50
2022-08-19T17:10:04.652Z,13.88
2022-08-19T17:12:35.149Z,12.73
2022-08-19T17:15:08.381Z,13.70
2022-08-19T17:17:41.500Z,14.10
2022-08-19T17:20:12.284Z,14.23
2022-08-19T17:22:42.495Z,12.75
2022-08-19T17:25:12.918Z,13.55
2022-08-19T17:27:43.137Z,11.50
2022-08-19T17:30:13.861Z,16.08
2022-08-19T17:32:47.789Z,15.63
2022-08-19T17:37:54.340Z,12.38
2022-08-19T17:40:24.994Z,12.07
2022-08-19T17:42:59.505Z,12.52
2022-08-19T17:45:30.112Z,10.95
2022-08-19T17:48:02.910Z,14.00
2022-08-19T17:50:35.231Z,12.70
2022-08-19T17:53:05.557Z,9.93
2022-08-19T17:55:37.411Z,9.13
2022-08-19T17:58:08.557Z,5.80
2022-08-19T18:00:53.458Z,9.02
2022-08-19T18:03:30.247Z,7.18
2022-08-19T18:06:00.553Z,7.72
2022-08-19T18:08:30.846Z,6.63
2022-08-19T18:11:01.048Z,6.63
2022-08-19T18:13:31.405Z,6.28
2022-08-19T18:16:01.648Z,6.90
2022-08-19T18:18:34.661Z,5.57
2022-08-19T18:21:05.321Z,9.13
2022-08-19T18:23:44.029Z,6.47
2022-08-19T18:26:16.091Z,6.88
2022-08-19T18:28:49.980Z,7.82
2022-08-19T18:31:20.402Z,5.85
2022-08-19T18:33:55.210Z,7.07
2022-08-19T18:36:50.451Z,5.70
2022-08-19T18:39:29.400Z,7.07
2022-08-19T18:42:12.241Z,8.27
2022-08-19T18:44:59.636Z,6.72
2022-08-19T18:47:57.236Z,4.88
2022-08-19T18:50:30.033Z,4.82
2022-08-19T18:53:00.025Z,5.97
2022-08-19T18:55:30.274Z,4.43
2022-08-19T18:58:00.657Z,3.80
2022-08-19T19:00:30.633Z,4.13
2022-08-19T19:03:00.934Z,3.97
2022-08-19T19:05:33.998Z,4.85
2022-08-19T19:08:04.274Z,5.30
2022-08-19T19:10:35.475Z,4.90
2022-08-19T19:13:05.796Z,3.92
2022-08-19T19:15:37.026Z,6.05
2022-08-19T19:18:07.309Z,4.25
2022-08-19T19:20:40.137Z,3.95
2022-08-19T19:23:10.500Z,4.57
2022-08-19T19:25:49.635Z,4.00
2022-08-19T19:28:25.691Z,3.30
2022-08-19T19:30:58.479Z,5.07
2022-08-19T19:33:28.742Z,4.30
2022-08-19T19:36:01.552Z,6.00
2022-08-19T19:38:31.526Z,6.18
2022-08-19T19:41:01.795Z,9.75
2022-08-19T19:43:34.875Z,6.55
2022-08-19T19:46:11.510Z,8.63
2022-08-19T19:48:41.906Z,6.80
2022-08-19T19:51:14.998Z,6.43
2022-08-19T19:53:45.528Z,9.38
2022-08-19T19:56:15.784Z,6.03
2022-08-19T19:58:45.987Z,9.63
2022-08-19T20:01:21.691Z,7.05
2022-08-19T20:03:55.109Z,6.30
2022-08-19T20:06:29.103Z,5.40
2022-08-19T20:09:10.790Z,8.18
2022-08-19T20:11:43.893Z,6.20
2022-08-19T20:14:16.540Z,6.07
2022-08-19T20:16:47.649Z,10.38
2022-08-19T20:19:19.893Z,6.18
2022-08-19T20:21:52.980Z,8.70
2022-08-19T20:24:25.949Z,6.63
2022-08-19T20:26:56.525Z,10.80
2022-08-19T20:29:38.895Z,7.65
2022-08-19T20:32:11.272Z,8.32
2022-08-19T20:34:44.681Z,7.55
2022-08-19T20:37:17.225Z,10.20
2022-08-19T20:39:47.480Z,9.10
2022-08-19T20:42:17.564Z,10.25
2022-08-19T20:44:47.943Z,8.40
2022-08-19T20:47:18.644Z,9.65
2022-08-19T20:49:48.848Z,9.18
2022-08-19T20:52:21.694Z,11.48
2022-08-19T20:54:51.904Z,10.52
2022-08-19T20:57:22.199Z,11.15
2022-08-19T20:59:52.147Z,12.95
2022-08-19T21:02:23.030Z,16.80
2022-08-19T21:04:53.042Z,12.93
2022-08-19T21:07:38.980Z,11.88
2022-08-19T21:10:11.237Z,15.15
2022-08-19T21:12:44.149Z,12.43
2022-08-19T21:15:14.921Z,10.00
2022-08-19T21:17:48.222Z,13.27
2022-08-19T21:20:18.338Z,12.23
2022-08-19T21:22:50.951Z,12.18
2022-08-19T21:25:21.890Z,15.05
2022-08-19T21:27:51.926Z,11.55
2022-08-19T21:30:22.558Z,12.27
2022-08-19T21:32:52.841Z,12.48
2022-08-19T21:35:23.212Z,10.85
2022-08-19T21:37:56.421Z,13.52
2022-08-19T21:40:26.976Z,12.65
2022-08-19T21:42:57.031Z,10.85
2022-08-19T21:45:27.366Z,13.15
2022-08-19T21:47:57.667Z,12.00
2022-08-19T21:50:28.902Z,9.57
2022-08-19T21:53:02.092Z,12.68
2022-08-19T21:55:32.276Z,10.77
2022-08-19T21:58:02.317Z,13.38
2022-08-19T22:00:36.810Z,13.52
2022-08-19T22:03:07.989Z,12.05
2022-08-19T22:05:38.217Z,12.45
2022-08-19T22:08:10.898Z,14.52
2022-08-19T22:10:41.154Z,13.55
2022-08-19T22:13:11.494Z,11.82
2022-08-19T22:15:42.532Z,12.40
2022-08-19T22:18:13.665Z,11.50
2022-08-19T22:20:44.550Z,13.65
2022-08-19T22:23:17.522Z,12.68
2022-08-19T22:25:49.549Z,11.43
2022-08-19T22:28:27.890Z,14.23
2022-08-19T22:30:58.675Z,12.73
2022-08-19T22:33:29.856Z,15.27
2022-08-19T22:36:00.121Z,12.35
2022-08-19T22:38:32.757Z,11.57
2022-08-19T22:41:02.709Z,10.73
2022-08-19T22:43:34.143Z,15.45
2022-08-19T22:46:06.546Z,15.05
2022-08-19T22:48:56.756Z,14.77
2022-08-19T22:54:16.826Z,14.95
2022-08-19T22:56:47.061Z,13.70
2022-08-19T22:59:17.297Z,12.73
2022-08-19T23:01:47.281Z,11.70
2022-08-19T23:04:17.248Z,16.23
2022-08-19T23:06:47.260Z,13.60
2022-08-19T23:09:19.798Z,13.85
2022-08-19T23:11:53.885Z,14.70
2022-08-19T23:14:24.277Z,15.50
2022-08-19T23:16:58.763Z,19.00
2022-08-19T23:19:29.798Z,17.00
2022-08-19T23:21:59.809Z,16.90
2022-08-19T23:24:32.370Z,16.42
2022-08-19T23:27:15.032Z,18.65
2022-08-19T23:29:57.455Z,21.33
2022-08-19T23:32:27.718Z,20.80
2022-08-19T23:34:59.787Z,21.33
2022-08-19T23:37:29.872Z,21.75
2022-08-19T23:40:02.470Z,23.80
2022-08-19T23:42:32.733Z,24.55
2022-08-19T23:45:04.989Z,26.40
2022-08-19T23:47:36.004Z,23.37
2022-08-19T23:50:12.560Z,23.13
2022-08-19T23:52:48.173Z,22.90
2022-08-19T23:55:22.302Z,25.60
2022-08-19T23:57:52.484Z,25.85
